York, ME (03909)

10:02 PM EDT on June 23, 2017 (GMT -0400)
York Village | | Change Station
Active Advisory: Coastal Flood Statement Active Notice: Coastal Flood Statement

Elev 56 ft 43.14 °N, 70.65 °W | Updated 2 seconds ago

Mostly Cloudy
Mostly Cloudy
68.2 °F
Feels Like 68.2 °F
N
0.0
Wind Variable Wind from SW
Gusts 0.0 mph

Today
High -- | Low -- °F
--% Chance of Precip.
Yesterday
High -- | Low -- °F
Precip. -- in
Pressure 29.57 in
Visibility 10.0 miles
Clouds Few 6500 ft
Scattered Clouds 13000 ft
Mostly Cloudy 18000 ft
Dew Point 66 °F
Humidity 93%
Rainfall 0.04 in
Snow Depth Not available.
5:03 AM 8:26 PM
Waning Crescent, 0% visible
METAR KPSM 240158Z 21011KT 10SM FEW065 SCT130 BKN180 25/21 A2956 RMK AO2A SLP013 T02510207
Pressure 29.57 in
Visibility 10.0 miles
Clouds Few 6500 ft
Scattered Clouds 13000 ft
Mostly Cloudy 18000 ft
Dew Point 66 °F
Humidity 93%
Rainfall 0.04 in
Snow Depth Not available.
5:03 AM 8:26 PM
Waning Crescent, 0% visible
METAR KPSM 240158Z 21011KT 10SM FEW065 SCT130 BKN180 25/21 A2956 RMK AO2A SLP013 T02510207

Get Your Daily Forecast Email!

Thanks for signing up!

Be on the lookout for a verification email in your inbox.

You'll start receiving severe weather alerts in your inbox..

×

10-Day Weather Forecast

Almanac

Astronomy

Jun. 23, 2017 Rise Set
Actual Time
Civil Twilight
Nautical Twilight
Astronomical Twilight
Moon
Length of Visible Light
Length of Day
Tomorrow will be .
, % of the Moon is Illuminated

Today's Extremes

State Highs State Lows

Community

WunderPhotos

Category 6

Welcome to Category 6. This is the collective home for Weather Underground's featured writeups by Dr. Jeff Masters (right), Bob Henson (left), Chris Burt, and other regular contributors.

Nearby

Air Quality

  Air Quality AQ Index Pollutant
Not available.

Snow Depth

Station Depth Elevation

Earthquake Activity

City Distance Mag. Time & Date
Minimum magnitude displayed is 2.5.

Coastal Water Temperatures

Place Temperature

Stations

Nearby Weather Stations

Station Location Temp. Windchill Dew Point Humidity Wind Precip. Elev Updated Type
                   

Watches & Warnings

Coastal Flood Statement
Issued: 3:08 PM EDT Jun. 23, 2017 – National Weather Service

* location... from Portland Harbor and points south to Hampton New
Hampshire.

* Coastal flooding... very minor around the time of high tide.

* Timing... late this evening.

Jc